Terminal Aerodrome Forecast
Issued by NWS Melbourne, FL

Home | Current Version | Previous Version | Text Only | Print | Product List | Glossary On
Versions: 1 2 3 4 5 6 7 8 9 10 11 12 13 14 15 16 17 18 19 20 21
789
FTUS42 KMLB 210539
TAFVRB
TAF
KVRB 210539Z 2106/2206 07004KT P6SM SCT250
     FM210900 00000KT 5SM BR FEW010
     FM211400 10011KT P6SM SCT040 BKN250
     FM220200 12007KT P6SM BKN040 BKN250=

USA.gov is the U.S. government's official web portal to all federal, state and local government web resources and services.